createdAt,value
2023-01-04T00:00:28.496Z,10.87
2023-01-04T00:02:59.326Z,10.57
2023-01-04T00:05:28.670Z,10.53
2023-01-04T00:07:57.875Z,11.90
2023-01-04T00:10:27.325Z,11.03
2023-01-04T00:12:56.611Z,11.53
2023-01-04T00:15:25.783Z,10.57
2023-01-04T00:17:54.938Z,9.77
2023-01-04T00:20:25.631Z,10.73
2023-01-04T00:22:54.853Z,12.03
2023-01-04T00:25:24.227Z,10.90
2023-01-04T00:27:53.461Z,10.83
2023-01-04T00:30:23.376Z,10.60
2023-01-04T00:32:52.546Z,10.10
2023-01-04T00:35:44.274Z,10.70
2023-01-04T00:38:12.500Z,10.40
2023-01-04T00:40:41.945Z,9.00
2023-01-04T00:43:11.258Z,9.43
2023-01-04T00:45:40.627Z,10.60
2023-01-04T00:48:09.882Z,10.00
2023-01-04T00:50:39.106Z,10.70
2023-01-04T00:53:08.709Z,8.97
2023-01-04T00:55:39.409Z,10.00
2023-01-04T00:58:09.115Z,9.77
2023-01-04T01:00:38.521Z,9.30
2023-01-04T01:03:08.097Z,9.70
2023-01-04T01:05:37.929Z,9.60
2023-01-04T01:08:21.171Z,9.30
2023-01-04T01:10:51.950Z,8.70
2023-01-04T01:13:21.437Z,9.27
2023-01-04T01:15:50.966Z,9.60
2023-01-04T01:18:20.177Z,10.17
2023-01-04T01:20:49.425Z,9.80
2023-01-04T01:23:18.601Z,9.33
2023-01-04T01:25:47.744Z,9.90
2023-01-04T01:28:18.506Z,9.50
2023-01-04T01:30:47.860Z,10.10
2023-01-04T01:33:17.110Z,10.20
2023-01-04T01:35:46.570Z,10.30
2023-01-04T01:38:15.728Z,10.67
2023-01-04T01:40:44.976Z,11.20
2023-01-04T01:43:19.854Z,10.07
2023-01-04T01:45:49.948Z,10.27
2023-01-04T01:48:20.718Z,10.13
2023-01-04T01:50:52.414Z,11.73
2023-01-04T01:53:22.314Z,9.43
2023-01-04T01:55:52.996Z,10.13
2023-01-04T01:58:25.522Z,9.07
2023-01-04T02:00:54.927Z,10.93
2023-01-04T02:03:24.791Z,9.70
2023-01-04T02:05:55.966Z,9.60
2023-01-04T02:08:27.069Z,10.47
2023-01-04T02:10:56.420Z,9.70
2023-01-04T02:13:48.909Z,10.03
2023-01-04T02:16:22.693Z,9.30
2023-01-04T02:19:00.346Z,9.33
2023-01-04T02:21:34.957Z,9.30
2023-01-04T02:24:23.966Z,9.37
2023-01-04T02:27:20.738Z,10.67
2023-01-04T02:30:10.754Z,9.93
2023-01-04T02:32:48.435Z,10.43
2023-01-04T02:35:22.600Z,9.97
2023-01-04T02:37:54.007Z,9.50
2023-01-04T02:40:25.674Z,10.67
2023-01-04T02:43:17.796Z,10.60
2023-01-04T02:45:50.999Z,10.57
2023-01-04T02:48:39.022Z,11.40
2023-01-04T02:51:08.335Z,10.07
2023-01-04T02:53:40.436Z,9.90
2023-01-04T02:56:17.147Z,10.87
2023-01-04T02:58:55.779Z,11.57
2023-01-04T03:01:48.649Z,11.43
2023-01-04T03:04:42.968Z,10.90
2023-01-04T03:07:15.191Z,11.40
2023-01-04T03:09:48.834Z,10.57
2023-01-04T03:12:32.215Z,10.70
2023-01-04T03:15:03.451Z,10.83
2023-01-04T03:17:36.017Z,10.50
2023-01-04T03:20:09.678Z,10.73
2023-01-04T03:22:57.732Z,11.07
2023-01-04T03:25:47.587Z,11.20
2023-01-04T03:28:35.197Z,10.10
2023-01-04T03:31:27.826Z,11.03
2023-01-04T03:34:14.685Z,10.47
2023-01-04T03:36:53.362Z,10.87
2023-01-04T03:39:43.714Z,11.37
2023-01-04T03:42:33.904Z,11.17
2023-01-04T03:45:26.364Z,10.13
2023-01-04T03:48:15.673Z,11.23
2023-01-04T03:50:47.355Z,10.70
2023-01-04T03:53:18.128Z,10.97
2023-01-04T03:55:48.226Z,11.83
2023-01-04T03:58:17.577Z,11.67
2023-01-04T04:00:47.931Z,10.80
2023-01-04T04:03:17.482Z,11.93
2023-01-04T04:06:04.696Z,11.53
2023-01-04T04:08:35.344Z,11.70
2023-01-04T04:11:19.169Z,12.30
2023-01-04T04:13:48.590Z,11.70
2023-01-04T04:16:19.145Z,11.43
2023-01-04T04:18:48.919Z,10.90
2023-01-04T04:21:18.142Z,11.70
2023-01-04T04:23:48.762Z,10.47
2023-01-04T04:26:18.275Z,10.17
2023-01-04T04:28:47.490Z,10.07
2023-01-04T04:31:16.720Z,10.50
2023-01-04T04:33:46.226Z,11.43
2023-01-04T04:36:15.368Z,10.40
2023-01-04T04:38:44.615Z,10.57
2023-01-04T04:41:33.252Z,10.23
2023-01-04T04:44:02.623Z,10.63
2023-01-04T04:46:31.809Z,10.20
2023-01-04T04:49:01.148Z,10.37
2023-01-04T04:51:30.345Z,10.10
2023-01-04T04:53:59.558Z,9.50
2023-01-04T04:56:30.240Z,8.83
2023-01-04T04:58:59.495Z,10.07
2023-01-04T05:01:28.746Z,10.17
2023-01-04T05:03:58.324Z,10.00
2023-01-04T05:06:27.617Z,9.60
2023-01-04T05:08:57.063Z,10.00
2023-01-04T05:11:40.008Z,10.37
2023-01-04T05:14:10.849Z,9.33
2023-01-04T05:16:40.064Z,10.10
2023-01-04T05:19:10.016Z,10.27
2023-01-04T05:21:40.979Z,9.10
2023-01-04T05:24:14.198Z,9.30
2023-01-04T05:26:43.398Z,9.53
2023-01-04T05:29:34.700Z,9.17
2023-01-04T05:32:02.995Z,10.40
2023-01-04T05:34:32.225Z,9.70
2023-01-04T05:37:01.629Z,9.40
2023-01-04T05:39:31.235Z,9.80
2023-01-04T05:42:17.721Z,11.00
2023-01-04T05:44:48.664Z,9.63
2023-01-04T05:47:17.927Z,9.50
2023-01-04T05:49:47.193Z,8.90
2023-01-04T05:52:16.470Z,9.17
2023-01-04T05:54:45.776Z,9.23
2023-01-04T05:57:15.561Z,8.73
2023-01-04T05:59:44.965Z,8.07
2023-01-04T06:02:19.868Z,8.13
2023-01-04T06:04:56.368Z,8.73
2023-01-04T06:07:26.077Z,8.50
2023-01-04T06:09:55.299Z,9.23
2023-01-04T06:12:24.729Z,8.53
2023-01-04T06:14:53.988Z,8.57
2023-01-04T06:17:25.593Z,8.33
2023-01-04T06:19:54.744Z,8.30
2023-01-04T06:22:24.506Z,8.63
2023-01-04T06:24:53.869Z,7.90
2023-01-04T06:27:23.109Z,8.80
2023-01-04T06:29:53.272Z,8.40
2023-01-04T06:32:22.517Z,7.70
2023-01-04T06:34:53.089Z,7.10
2023-01-04T06:37:22.441Z,8.07
2023-01-04T06:39:51.930Z,8.40
2023-01-04T06:42:38.471Z,7.87
2023-01-04T06:45:08.776Z,7.73
2023-01-04T06:47:37.954Z,7.80
2023-01-04T06:50:08.949Z,8.10
2023-01-04T06:52:38.221Z,7.30
2023-01-04T06:55:09.741Z,7.90
2023-01-04T06:57:39.017Z,7.63
2023-01-04T07:00:09.264Z,8.73
2023-01-04T07:02:38.654Z,8.47
2023-01-04T07:05:29.792Z,7.90
2023-01-04T07:08:07.702Z,8.20
2023-01-04T07:10:37.582Z,7.83
2023-01-04T07:13:06.715Z,8.20
2023-01-04T07:15:39.135Z,9.23
2023-01-04T07:18:09.877Z,8.00
2023-01-04T07:20:40.923Z,7.57
2023-01-04T07:23:10.500Z,7.53
2023-01-04T07:25:39.644Z,8.07
2023-01-04T07:28:08.846Z,8.00
2023-01-04T07:30:38.059Z,7.80
2023-01-04T07:33:07.357Z,8.03
2023-01-04T07:35:36.578Z,7.80
2023-01-04T07:38:07.219Z,6.97
2023-01-04T07:40:36.511Z,10.00
2023-01-04T07:43:28.231Z,11.23
2023-01-04T07:45:58.335Z,7.60
2023-01-04T07:48:29.779Z,7.77
2023-01-04T07:50:59.177Z,8.27
2023-01-04T07:53:29.778Z,7.40
2023-01-04T07:55:59.159Z,7.53
2023-01-04T07:58:28.561Z,9.67
2023-01-04T08:01:07.715Z,7.43
2023-01-04T08:03:37.256Z,6.90
2023-01-04T08:06:06.883Z,7.43
2023-01-04T08:08:38.060Z,6.83
2023-01-04T08:11:08.331Z,7.10
2023-01-04T08:13:37.540Z,7.20
2023-01-04T08:16:07.114Z,7.20
2023-01-04T08:18:36.545Z,7.23
2023-01-04T08:21:06.425Z,7.10
2023-01-04T08:23:36.113Z,6.57
2023-01-04T08:26:08.804Z,7.30
2023-01-04T08:28:38.268Z,7.93
2023-01-04T08:31:08.544Z,6.80
2023-01-04T08:33:38.054Z,6.97
2023-01-04T08:36:11.138Z,6.90
2023-01-04T08:38:59.393Z,6.20
2023-01-04T08:41:56.536Z,6.50
2023-01-04T08:44:20.986Z,7.10
2023-01-04T08:46:50.649Z,6.47
2023-01-04T08:49:20.047Z,6.07
2023-01-04T08:51:49.635Z,6.00
2023-01-04T08:54:19.087Z,5.90
2023-01-04T08:56:49.684Z,6.70
2023-01-04T08:59:18.835Z,5.90
2023-01-04T09:01:48.166Z,7.23
2023-01-04T09:04:17.777Z,6.27
2023-01-04T09:06:47.264Z,6.27
2023-01-04T09:09:17.157Z,6.00
2023-01-04T09:11:46.381Z,6.47
2023-01-04T09:14:17.193Z,6.13
2023-01-04T09:16:46.623Z,6.63
2023-01-04T09:19:21.597Z,6.27
2023-01-04T09:21:51.373Z,8.70
2023-01-04T09:24:20.721Z,7.20
2023-01-04T09:26:49.929Z,6.90
2023-01-04T09:29:20.676Z,7.43
2023-01-04T09:31:50.185Z,5.80
2023-01-04T09:34:19.454Z,6.90
2023-01-04T09:36:49.401Z,5.80
2023-01-04T09:39:22.986Z,6.50
2023-01-04T09:41:58.280Z,6.17
2023-01-04T09:47:35.291Z,6.20
2023-01-04T09:50:06.460Z,6.10
2023-01-04T09:52:42.921Z,6.50
2023-01-04T09:55:39.066Z,7.10
2023-01-04T09:58:08.403Z,5.50
2023-01-04T10:00:43.698Z,5.70
2023-01-04T10:03:39.304Z,6.80
2023-01-04T10:06:09.438Z,6.60
2023-01-04T10:08:39.183Z,6.70
2023-01-04T10:11:15.809Z,7.23
2023-01-04T10:13:58.007Z,7.00
2023-01-04T10:17:11.241Z,6.57
2023-01-04T10:22:26.350Z,6.00
2023-01-04T10:25:00.621Z,5.20
2023-01-04T10:27:40.823Z,5.70
2023-01-04T10:30:23.323Z,5.83
2023-01-04T10:32:56.096Z,5.93
2023-01-04T10:35:26.151Z,5.67
2023-01-04T10:37:59.673Z,6.43
2023-01-04T10:40:29.821Z,6.20
2023-01-04T10:43:02.352Z,6.07
2023-01-04T10:45:36.940Z,4.83
2023-01-04T10:48:10.780Z,6.00
2023-01-04T10:50:43.407Z,5.40
2023-01-04T10:53:15.169Z,7.50
2023-01-04T10:56:23.235Z,6.50
2023-01-04T10:58:40.238Z,5.20
2023-01-04T11:01:13.454Z,5.23
2023-01-04T11:03:45.839Z,5.20
2023-01-04T11:06:17.919Z,5.97
2023-01-04T11:08:49.566Z,12.77
2023-01-04T11:11:22.911Z,4.67
2023-01-04T11:13:52.589Z,4.60
2023-01-04T11:16:22.071Z,4.40
2023-01-04T11:18:53.192Z,4.80
2023-01-04T11:21:24.031Z,5.10
2023-01-04T11:23:56.488Z,4.80
2023-01-04T11:26:32.598Z,4.10
2023-01-04T11:29:06.800Z,4.87
2023-01-04T11:31:42.196Z,4.57
2023-01-04T11:34:13.052Z,5.90
2023-01-04T11:36:43.548Z,5.37
2023-01-04T11:39:20.708Z,4.43
2023-01-04T11:42:03.003Z,4.27
2023-01-04T11:44:33.845Z,4.37
2023-01-04T11:47:10.412Z,3.90
2023-01-04T11:49:41.647Z,4.60
2023-01-04T11:52:30.056Z,4.60
2023-01-04T11:54:59.528Z,4.60
2023-01-04T11:57:28.871Z,4.77
2023-01-04T12:00:11.057Z,5.77
2023-01-04T12:03:04.524Z,8.03
2023-01-04T12:05:32.629Z,8.50
2023-01-04T12:08:02.059Z,10.30
2023-01-04T12:10:31.440Z,9.77
2023-01-04T12:13:02.684Z,10.00
2023-01-04T12:15:37.046Z,9.17
2023-01-04T12:18:08.601Z,8.60
2023-01-04T12:20:39.443Z,8.37
2023-01-04T12:23:08.776Z,9.10
2023-01-04T12:25:42.112Z,8.93
2023-01-04T12:28:26.689Z,9.30
2023-01-04T12:30:56.291Z,8.27
2023-01-04T12:33:41.524Z,9.13
2023-01-04T12:36:12.913Z,8.60
2023-01-04T12:39:00.846Z,9.80
2023-01-04T12:42:00.709Z,8.40
2023-01-04T12:44:52.055Z,7.40
2023-01-04T12:47:56.955Z,9.43
2023-01-04T12:50:29.478Z,8.90
2023-01-04T12:53:28.339Z,8.90
2023-01-04T12:55:54.608Z,8.23
2023-01-04T13:01:38.013Z,11.03
2023-01-04T13:04:25.868Z,9.23
2023-01-04T13:06:55.659Z,11.03
2023-01-04T13:09:27.317Z,12.20
2023-01-04T13:12:14.288Z,10.43
2023-01-04T13:14:47.136Z,10.97
2023-01-04T13:17:18.775Z,13.80
2023-01-04T13:19:48.721Z,12.10
2023-01-04T13:22:28.669Z,14.93
2023-01-04T13:25:01.938Z,14.17
2023-01-04T13:27:31.343Z,15.07
2023-01-04T13:30:00.637Z,16.50
2023-01-04T13:32:30.721Z,16.50
2023-01-04T13:35:05.734Z,15.90
2023-01-04T13:37:40.219Z,15.33
2023-01-04T13:40:34.597Z,14.90
2023-01-04T13:43:18.950Z,15.97
2023-01-04T13:46:00.565Z,15.17
2023-01-04T13:48:36.302Z,15.07
2023-01-04T13:51:06.707Z,14.80
2023-01-04T13:53:35.999Z,15.37
2023-01-04T13:56:06.228Z,16.37
2023-01-04T13:58:37.353Z,14.37
2023-01-04T14:01:08.791Z,15.43
2023-01-04T14:03:39.817Z,15.37
2023-01-04T14:06:21.620Z,14.03
2023-01-04T14:08:53.268Z,14.13
2023-01-04T14:11:42.266Z,13.63
2023-01-04T14:14:24.521Z,12.77
2023-01-04T14:17:06.879Z,11.87
2023-01-04T14:19:44.246Z,12.37
2023-01-04T14:22:31.875Z,12.80
2023-01-04T14:25:10.067Z,11.23
2023-01-04T14:27:40.852Z,10.07
2023-01-04T14:30:25.039Z,11.63
2023-01-04T14:32:58.681Z,11.87
2023-01-04T14:35:28.555Z,11.03
2023-01-04T14:37:58.340Z,13.00
2023-01-04T14:40:28.595Z,9.73
2023-01-04T14:42:57.870Z,10.80
2023-01-04T14:45:28.458Z,9.70
2023-01-04T14:47:57.806Z,11.03
2023-01-04T14:50:27.241Z,9.77
2023-01-04T14:52:56.624Z,9.90
2023-01-04T14:55:25.963Z,10.23
2023-01-04T14:57:55.283Z,11.30
2023-01-04T15:00:24.517Z,10.33
2023-01-04T15:02:55.588Z,10.10
2023-01-04T15:05:25.135Z,9.63
2023-01-04T15:07:54.601Z,10.20
2023-01-04T15:10:25.119Z,9.43
2023-01-04T15:12:54.590Z,10.87
2023-01-04T15:15:24.005Z,9.97
2023-01-04T15:17:53.462Z,9.67
2023-01-04T15:20:24.171Z,10.07
2023-01-04T15:22:53.420Z,9.67
2023-01-04T15:25:22.699Z,10.20
2023-01-04T15:27:52.491Z,8.60
2023-01-04T15:30:21.748Z,12.13
2023-01-04T15:32:51.292Z,10.10
2023-01-04T15:35:20.627Z,9.73
2023-01-04T15:37:51.698Z,9.77
2023-01-04T15:40:21.463Z,10.00
2023-01-04T15:43:03.012Z,13.63
2023-01-04T15:45:33.473Z,9.87
2023-01-04T15:48:04.356Z,10.10
2023-01-04T15:50:35.521Z,11.30
2023-01-04T15:53:06.399Z,10.10
2023-01-04T15:55:36.933Z,10.90
2023-01-04T15:58:06.533Z,9.30
2023-01-04T16:00:35.792Z,9.90
2023-01-04T16:03:05.481Z,10.43
2023-01-04T16:05:34.713Z,11.30
2023-01-04T16:08:04.376Z,10.40
2023-01-04T16:10:35.022Z,10.60
2023-01-04T16:13:04.440Z,9.77
2023-01-04T16:15:33.973Z,10.73
2023-01-04T16:18:03.288Z,9.93
2023-01-04T16:20:32.685Z,9.63
2023-01-04T16:23:01.898Z,10.07
2023-01-04T16:25:31.087Z,9.30
2023-01-04T16:28:01.797Z,10.10
2023-01-04T16:30:35.542Z,9.80
2023-01-04T16:33:05.072Z,10.13
2023-01-04T16:35:34.399Z,10.23
2023-01-04T16:38:03.717Z,10.20
2023-01-04T16:40:32.914Z,11.60
2023-01-04T16:43:03.929Z,11.10
2023-01-04T16:45:33.318Z,10.73
2023-01-04T16:48:02.594Z,11.40
2023-01-04T16:50:31.802Z,12.77
2023-01-04T16:53:00.980Z,10.73
2023-01-04T16:55:30.469Z,9.47
2023-01-04T16:57:59.939Z,9.23
2023-01-04T17:00:30.555Z,10.37
2023-01-04T17:02:59.711Z,11.77
2023-01-04T17:05:29.223Z,9.53
2023-01-04T17:07:58.534Z,12.57
2023-01-04T17:10:29.793Z,12.83
2023-01-04T17:12:59.168Z,10.30
2023-01-04T17:15:44.640Z,13.27
2023-01-04T17:18:17.865Z,11.80
2023-01-04T17:20:53.879Z,12.37
2023-01-04T17:23:23.701Z,11.17
2023-01-04T17:25:52.889Z,11.30
2023-01-04T17:28:25.098Z,11.50
2023-01-04T17:30:54.760Z,25.13
2023-01-04T17:33:25.479Z,12.00
2023-01-04T17:35:54.717Z,11.27
2023-01-04T17:38:23.948Z,10.87
2023-01-04T17:40:53.165Z,11.87
2023-01-04T17:43:22.453Z,11.57
2023-01-04T17:45:51.890Z,10.80
2023-01-04T17:48:21.278Z,11.03
2023-01-04T17:50:52.241Z,10.73
2023-01-04T17:53:21.522Z,9.77
2023-01-04T17:55:50.777Z,10.37
2023-01-04T17:58:23.208Z,11.13
2023-01-04T18:00:52.642Z,9.90
2023-01-04T18:03:21.963Z,11.30
2023-01-04T18:06:07.066Z,10.37
2023-01-04T18:08:43.428Z,12.40
2023-01-04T18:11:13.033Z,12.00
2023-01-04T18:13:43.410Z,10.33
2023-01-04T18:16:30.600Z,10.70
2023-01-04T18:19:01.100Z,10.97
2023-01-04T18:21:32.903Z,15.90
2023-01-04T18:27:20.396Z,11.33
2023-01-04T18:29:42.788Z,10.80
2023-01-04T18:32:12.111Z,11.10
2023-01-04T18:34:41.520Z,11.20
2023-01-04T18:37:12.344Z,12.47
2023-01-04T18:39:41.688Z,10.37
2023-01-04T18:42:11.027Z,11.30
2023-01-04T18:44:47.369Z,12.43
2023-01-04T18:47:17.857Z,12.53
2023-01-04T18:49:47.157Z,9.10
2023-01-04T18:52:18.329Z,8.97
2023-01-04T18:54:48.852Z,10.40
2023-01-04T18:57:18.138Z,10.60
2023-01-04T18:59:50.438Z,11.53
2023-01-04T19:02:20.585Z,9.90
2023-01-04T19:04:50.109Z,9.97
2023-01-04T19:07:20.953Z,10.30
2023-01-04T19:09:50.368Z,10.03
2023-01-04T19:12:20.154Z,12.40
2023-01-04T19:14:50.115Z,10.53
2023-01-04T19:17:21.848Z,10.50
2023-01-04T19:19:51.511Z,10.90
2023-01-04T19:22:22.506Z,10.70
2023-01-04T19:24:51.798Z,11.40
2023-01-04T19:27:21.153Z,12.07
2023-01-04T19:29:50.495Z,12.70
2023-01-04T19:32:21.335Z,12.57
2023-01-04T19:34:50.569Z,12.70
2023-01-04T19:37:19.815Z,14.33
2023-01-04T19:39:50.646Z,13.63
2023-01-04T19:42:19.909Z,12.23
2023-01-04T19:44:49.269Z,12.77
2023-01-04T19:47:18.672Z,11.53
2023-01-04T19:49:49.867Z,12.23
2023-01-04T19:52:19.375Z,12.90
2023-01-04T19:54:48.732Z,12.70
2023-01-04T19:57:19.484Z,12.73
2023-01-04T19:59:48.887Z,14.10
2023-01-04T20:02:18.497Z,16.70
2023-01-04T20:04:48.013Z,14.60
2023-01-04T20:07:17.282Z,14.63
2023-01-04T20:09:48.843Z,14.97
2023-01-04T20:12:19.612Z,17.13
2023-01-04T20:14:49.068Z,13.00
2023-01-04T20:17:18.259Z,13.10
2023-01-04T20:19:47.731Z,13.83
2023-01-04T20:22:16.896Z,13.20
2023-01-04T20:24:46.791Z,14.80
2023-01-04T20:27:16.004Z,14.37
2023-01-04T20:29:46.689Z,13.37
2023-01-04T20:32:16.183Z,12.93
2023-01-04T20:34:45.599Z,12.17
2023-01-04T20:37:14.918Z,14.00
2023-01-04T20:39:44.163Z,15.10
2023-01-04T20:42:30.847Z,14.70
2023-01-04T20:45:01.480Z,14.30
2023-01-04T20:47:32.174Z,15.43
2023-01-04T20:50:02.068Z,16.40
2023-01-04T20:52:31.392Z,16.67
2023-01-04T20:55:00.683Z,16.43
2023-01-04T20:57:30.347Z,16.47
2023-01-04T20:59:59.663Z,16.73
2023-01-04T21:02:34.261Z,18.40
2023-01-04T21:05:07.386Z,16.27
2023-01-04T21:07:36.573Z,15.63
2023-01-04T21:10:06.059Z,14.57
2023-01-04T21:12:37.894Z,10.30
2023-01-04T21:15:07.781Z,11.00
2023-01-04T21:17:38.584Z,11.87
2023-01-04T21:20:08.512Z,11.47
2023-01-04T21:22:37.721Z,10.13
2023-01-04T21:25:08.095Z,11.13
2023-01-04T21:27:37.533Z,10.90
2023-01-04T21:30:07.217Z,10.10
2023-01-04T21:32:36.535Z,9.00
2023-01-04T21:35:07.900Z,9.53
2023-01-04T21:37:37.163Z,9.50
2023-01-04T21:40:06.999Z,11.30
2023-01-04T21:42:36.578Z,10.40
2023-01-04T21:45:06.865Z,10.20
2023-01-04T21:47:36.093Z,9.50
2023-01-04T21:50:05.450Z,9.70
2023-01-04T21:52:36.400Z,11.13
2023-01-04T21:55:05.886Z,7.90
2023-01-04T21:57:35.933Z,8.63
2023-01-04T22:00:06.273Z,9.33
2023-01-04T22:02:35.873Z,10.13
2023-01-04T22:05:05.343Z,9.67
2023-01-04T22:07:34.683Z,9.70
2023-01-04T22:10:05.575Z,10.67
2023-01-04T22:12:34.925Z,10.70
2023-01-04T22:15:04.224Z,11.57
2023-01-04T22:17:33.465Z,9.90
2023-01-04T22:20:02.825Z,12.37
2023-01-04T22:22:32.297Z,11.17
2023-01-04T22:25:01.563Z,10.70
2023-01-04T22:27:32.824Z,10.77
2023-01-04T22:30:02.100Z,10.53
2023-01-04T22:32:31.299Z,10.33
2023-01-04T22:35:00.535Z,12.63
2023-01-04T22:37:29.689Z,11.13
2023-01-04T22:39:58.994Z,11.87
2023-01-04T22:42:28.147Z,11.60
2023-01-04T22:44:58.856Z,10.07
2023-01-04T22:47:28.049Z,10.23
2023-01-04T22:49:57.384Z,9.10
2023-01-04T22:52:26.543Z,10.23
2023-01-04T22:54:55.680Z,11.00
2023-01-04T22:57:24.854Z,9.97
2023-01-04T22:59:54.072Z,9.83
2023-01-04T23:02:24.687Z,10.00
2023-01-04T23:04:53.957Z,10.50
2023-01-04T23:07:23.199Z,10.93
2023-01-04T23:09:52.556Z,10.33
2023-01-04T23:12:21.751Z,9.87
2023-01-04T23:14:51.202Z,8.67
2023-01-04T23:17:20.400Z,11.10
2023-01-04T23:19:51.336Z,10.13
2023-01-04T23:22:20.582Z,10.90
2023-01-04T23:24:50.835Z,10.60
2023-01-04T23:27:20.049Z,10.43
2023-01-04T23:29:49.606Z,13.20
2023-01-04T23:32:18.924Z,12.13
2023-01-04T23:34:48.312Z,11.73
2023-01-04T23:37:19.459Z,11.30
2023-01-04T23:39:48.712Z,9.33
2023-01-04T23:42:17.898Z,11.27
2023-01-04T23:44:47.131Z,11.27
2023-01-04T23:47:16.327Z,10.20
2023-01-04T23:49:46.242Z,9.90
2023-01-04T23:52:15.453Z,10.13
2023-01-04T23:54:46.188Z,9.83
2023-01-04T23:57:15.539Z,11.53
2023-01-04T23:59:44.683Z,11.23
